Time;durP1;ratioP1;P1;durP2;ratioP2;P2;SDS_P1;SDS_P2;PMS_P1;PMS_P2;Temp;Humidity;BMP_temperature;BMP_pressure;BME280_temperature;BME280_humidity;BME280_pressure;Samples;Min_cycle;Max_cycle;Signal;HPM_P1;HPM_P2
2021/06/23 00:00:50;;;;;;;9.97;5.37;;;;;;;12.40;100.00;101204.19;4999090;28;20220;-73
2021/06/23 00:03:15;;;;;;;8.07;5.23;;;;;;;12.47;100.00;101210.16;5029298;28;20192;-73
2021/06/23 00:05:41;;;;;;;7.63;5.23;;;;;;;12.38;100.00;101222.66;5008811;28;20248;-75
2021/06/23 00:08:07;;;;;;;7.77;4.70;;;;;;;12.42;100.00;101232.78;5009464;28;20243;-76
2021/06/23 00:10:32;;;;;;;8.53;4.97;;;;;;;12.62;100.00;101229.25;4983863;28;20613;-73
2021/06/23 00:13:08;;;;;;;6.53;4.70;;;;;;;12.60;100.00;101220.53;5009062;28;20177;-73
2021/06/23 00:15:34;;;;;;;9.47;4.90;;;;;;;12.54;100.00;101227.06;5012394;28;20225;-73
2021/06/23 00:18:05;;;;;;;7.40;4.83;;;;;;;12.55;100.00;101212.38;4993193;28;20189;-75
2021/06/23 00:20:31;;;;;;;6.30;5.10;;;;;;;12.58;100.00;101209.91;4978263;28;20683;-73
2021/06/23 00:22:56;;;;;;;7.03;5.03;;;;;;;12.61;100.00;101212.06;5028815;28;20195;-73
2021/06/23 00:25:25;;;;;;;6.50;5.03;;;;;;;12.71;100.00;101214.81;5011303;28;20197;-73
2021/06/23 00:27:53;;;;;;;10.93;5.47;;;;;;;12.79;100.00;101203.38;4977130;28;20212;-73
2021/06/23 00:30:21;;;;;;;5.30;4.80;;;;;;;12.77;100.00;101211.81;4991430;28;20199;-73
2021/06/23 00:32:46;;;;;;;8.10;5.23;;;;;;;12.69;100.00;101208.81;5012170;28;20180;-73
2021/06/23 00:35:12;;;;;;;5.57;5.00;;;;;;;12.69;100.00;101204.19;5028458;28;20689;-75
2021/06/23 00:37:43;;;;;;;8.13;5.20;;;;;;;12.54;100.00;101218.88;4994926;28;20212;-75
2021/06/23 00:40:11;;;;;;;9.67;5.03;;;;;;;12.37;100.00;101218.31;4991497;28;20193;-73
2021/06/23 00:42:37;;;;;;;8.17;4.77;;;;;;;12.46;100.00;101198.44;5011543;28;20238;-74
2021/06/23 00:45:04;;;;;;;6.13;4.97;;;;;;;12.53;100.00;101198.19;5031898;28;20260;-74
2021/06/23 00:47:30;;;;;;;7.27;4.83;;;;;;;12.66;100.00;101203.09;4990817;28;20216;-73
2021/06/23 00:49:56;;;;;;;9.07;4.87;;;;;;;12.62;100.00;101208.28;5027820;28;20179;-74
2021/06/23 00:53:02;;;;;;;8.00;5.17;;;;;;;12.53;100.00;101198.19;4976830;28;20209;-73
2021/06/23 00:55:33;;;;;;;7.83;4.90;;;;;;;12.63;100.00;101198.19;5002730;28;20225;-75
2021/06/23 00:58:05;;;;;;;9.17;5.23;;;;;;;12.67;100.00;101210.19;4996942;28;20209;-73
2021/06/23 01:00:35;;;;;;;7.37;4.87;;;;;;;12.70;100.00;101203.09;4975061;28;20316;-73
2021/06/23 01:03:02;;;;;;;6.90;5.10;;;;;;;12.64;100.00;101210.75;5009846;28;20220;-73
2021/06/23 01:05:33;;;;;;;7.87;5.67;;;;;;;12.67;100.00;101204.72;5012125;28;20594;-73
2021/06/23 01:08:01;;;;;;;7.60;5.60;;;;;;;12.64;100.00;101227.09;4995592;28;20247;-74
2021/06/23 01:10:29;;;;;;;9.10;5.43;;;;;;;12.50;100.00;101226.78;4993726;28;20220;-74
2021/06/23 01:13:15;;;;;;;7.50;5.33;;;;;;;12.41;100.00;101230.31;5008434;28;20188;-74
2021/06/23 01:15:41;;;;;;;7.57;5.40;;;;;;;12.32;100.00;101229.19;5010820;28;20872;-74
2021/06/23 01:18:10;;;;;;;7.57;4.90;;;;;;;12.21;100.00;101233.00;5028863;28;20173;-73
2021/06/23 01:20:47;;;;;;;6.00;5.30;;;;;;;12.15;100.00;101238.72;4992374;28;20217;-74
2021/06/23 01:23:17;;;;;;;9.57;5.80;;;;;;;12.14;100.00;101231.63;4977204;28;20194;-73
2021/06/23 01:25:50;;;;;;;6.93;5.17;;;;;;;12.21;100.00;101233.00;4989535;28;20218;-73
2021/06/23 01:28:16;;;;;;;7.83;5.57;;;;;;;12.19;100.00;101235.16;4989595;28;20238;-73
2021/06/23 01:31:18;;;;;;;7.70;5.43;;;;;;;12.06;100.00;101241.13;5014250;28;20223;-73
2021/06/23 01:33:46;;;;;;;8.37;5.10;;;;;;;12.05;100.00;101239.50;4992979;28;20698;-74
2021/06/23 01:36:17;;;;;;;7.67;5.40;;;;;;;12.06;100.00;101243.84;4998697;28;20228;-73
2021/06/23 01:38:43;;;;;;;8.53;5.60;;;;;;;12.28;100.00;101242.53;4976923;28;20181;-74
2021/06/23 01:41:09;;;;;;;8.60;5.73;;;;;;;12.31;100.00;101246.66;4985431;28;20271;-74
2021/06/23 01:43:42;;;;;;;7.07;5.70;;;;;;;12.06;100.00;101252.00;5011751;28;20201;-73
2021/06/23 01:46:10;;;;;;;9.27;5.93;;;;;;;12.04;100.00;101248.75;5011176;28;20248;-74
2021/06/23 01:48:35;;;;;;;6.97;5.80;;;;;;;12.11;100.00;101249.31;5028392;28;20196;-73
2021/06/23 01:51:03;;;;;;;7.07;5.97;;;;;;;12.07;100.00;101250.13;5026851;28;20216;-73
2021/06/23 01:53:41;;;;;;;7.83;5.77;;;;;;;12.13;100.00;101258.03;5028558;28;20685;-73
2021/06/23 01:56:08;;;;;;;7.83;6.40;;;;;;;12.18;100.00;101263.50;4995941;28;20232;-73
2021/06/23 01:58:39;;;;;;;9.50;5.70;;;;;;;12.11;100.00;101271.09;5025952;28;20197;-73
2021/06/23 02:01:45;;;;;;;6.43;5.83;;;;;;;12.14;100.00;101264.28;4978301;28;20706;-76
2021/06/23 02:04:36;;;;;;;11.03;5.73;;;;;;;11.99;100.00;101267.78;4997460;28;20254;-73
2021/06/23 02:07:36;;;;;;;7.23;6.07;;;;;;;11.92;100.00;101272.66;5021049;28;20710;-73
2021/06/23 02:10:14;;;;;;;8.13;5.70;;;;;;;12.03;100.00;101263.47;5009317;28;20188;-73
2021/06/23 02:13:32;;;;;;;9.47;5.90;;;;;;;12.05;100.00;101261.28;5024069;28;20192;-73
2021/06/23 02:16:24;;;;;;;11.17;5.73;;;;;;;11.84;100.00;101264.19;5011756;28;20239;-74
2021/06/23 02:18:54;;;;;;;7.77;5.93;;;;;;;11.89;100.00;101261.50;5031265;28;20226;-74
2021/06/23 02:21:30;;;;;;;8.03;5.73;;;;;;;11.90;100.00;101256.84;5013882;28;20286;-74
2021/06/23 02:23:56;;;;;;;8.00;5.97;;;;;;;11.93;100.00;101249.78;4995456;28;20582;-73
2021/06/23 02:26:23;;;;;;;8.63;5.73;;;;;;;11.95;100.00;101258.50;4978867;28;20257;-75
2021/06/23 02:28:52;;;;;;;6.93;5.73;;;;;;;11.99;100.00;101256.06;4991469;28;20188;-75
2021/06/23 02:31:23;;;;;;;9.50;5.73;;;;;;;11.91;100.00;101269.41;5029750;28;20231;-74
2021/06/23 02:33:53;;;;;;;7.60;5.77;;;;;;;11.90;100.00;101265.03;5012239;28;20682;-74
2021/06/23 02:36:24;;;;;;;6.80;5.20;;;;;;;11.84;100.00;101269.63;4995316;28;20225;-74
2021/06/23 02:38:50;;;;;;;7.63;5.90;;;;;;;11.91;100.00;101260.13;4978141;28;20629;-73
2021/06/23 02:41:17;;;;;;;6.33;5.27;;;;;;;11.77;100.00;101260.88;5023942;28;20220;-73
2021/06/23 02:43:43;;;;;;;11.20;6.07;;;;;;;11.86;100.00;101266.66;4997913;28;20250;-72
2021/06/23 02:46:19;;;;;;;8.30;5.37;;;;;;;11.88;100.00;101272.63;5000418;28;20223;-73
2021/06/23 02:48:48;;;;;;;10.37;5.77;;;;;;;11.74;100.00;101268.75;5010595;28;20185;-73
2021/06/23 02:51:24;;;;;;;8.63;6.13;;;;;;;11.98;100.00;101277.03;4978913;28;20221;-73
2021/06/23 02:53:55;;;;;;;8.30;6.27;;;;;;;11.99;100.00;101267.78;5020575;28;20196;-73
2021/06/23 02:56:28;;;;;;;7.27;5.67;;;;;;;12.02;100.00;101272.69;5014282;28;20270;-73
2021/06/23 02:58:56;;;;;;;8.10;6.30;;;;;;;11.94;100.00;101278.66;5010711;28;20181;-74
2021/06/23 03:01:24;;;;;;;7.03;5.80;;;;;;;12.01;100.00;101276.53;4993597;28;20312;-74
2021/06/23 03:03:52;;;;;;;7.20;5.83;;;;;;;12.01;100.00;101287.41;5011334;28;20197;-73
2021/06/23 03:06:25;;;;;;;7.60;5.87;;;;;;;11.99;100.00;101270.50;5011069;28;20221;-73
2021/06/23 03:08:56;;;;;;;8.20;6.47;;;;;;;11.91;100.00;101287.34;4999210;28;20506;-72
2021/06/23 03:11:39;;;;;;;7.63;6.10;;;;;;;11.98;100.00;101290.66;4982640;28;20226;-74
2021/06/23 03:14:15;;;;;;;7.13;5.93;;;;;;;12.04;100.00;101300.47;4997504;28;20212;-72
2021/06/23 03:16:47;;;;;;;9.03;6.00;;;;;;;12.18;100.00;101303.53;5010843;28;20221;-74
2021/06/23 03:19:15;;;;;;;8.17;5.37;;;;;;;12.01;100.00;101295.59;5019705;28;20254;-74
2021/06/23 03:21:41;;;;;;;8.30;5.73;;;;;;;12.30;100.00;101292.13;5012862;28;20215;-73
2021/06/23 03:24:07;;;;;;;7.23;5.70;;;;;;;12.24;100.00;101295.13;5006930;28;20216;-73
2021/06/23 03:26:34;;;;;;;7.63;5.53;;;;;;;12.14;100.00;101292.38;4977582;28;20290;-76
2021/06/23 03:29:33;;;;;;;7.37;5.73;;;;;;;12.37;100.00;101297.34;5011580;28;20275;-73
2021/06/23 03:32:03;;;;;;;6.30;5.40;;;;;;;12.30;100.00;101294.03;4993003;28;20225;-75
2021/06/23 03:34:33;;;;;;;9.27;5.90;;;;;;;12.53;100.00;101301.75;4988656;28;20742;-74
2021/06/23 03:37:04;;;;;;;7.87;5.87;;;;;;;12.52;100.00;101294.66;5046661;28;20250;-73
2021/06/23 03:39:33;;;;;;;6.20;5.60;;;;;;;12.68;100.00;101297.13;5027309;28;20272;-75
2021/06/23 03:42:08;;;;;;;7.80;5.20;;;;;;;12.69;100.00;101305.03;5014617;28;20229;-75
2021/06/23 03:44:35;;;;;;;6.10;5.23;;;;;;;12.86;100.00;101297.47;4995132;28;20204;-74
2021/06/23 03:47:02;;;;;;;6.07;5.37;;;;;;;12.81;100.00;101299.38;5012470;28;20220;-76
2021/06/23 03:49:31;;;;;;;9.67;5.90;;;;;;;12.89;100.00;101301.53;4994885;28;20280;-74
2021/06/23 03:52:01;;;;;;;7.37;5.20;;;;;;;12.65;100.00;101299.56;5009930;28;20216;-74
2021/06/23 03:54:29;;;;;;;7.03;5.53;;;;;;;12.89;100.00;101296.94;5029353;28;20298;-74
2021/06/23 03:56:57;;;;;;;5.83;5.07;;;;;;;12.54;100.00;101282.38;5024630;28;20904;-74
2021/06/23 03:59:23;;;;;;;6.17;5.50;;;;;;;12.62;100.00;101291.94;5009456;28;20197;-76
2021/06/23 04:01:51;;;;;;;6.30;5.70;;;;;;;12.69;100.00;101294.16;5019167;28;20208;-75
2021/06/23 04:04:20;;;;;;;8.93;5.93;;;;;;;12.89;100.00;101301.53;5029107;28;20582;-74
2021/06/23 04:07:00;;;;;;;6.27;5.67;;;;;;;13.08;100.00;101289.84;4999534;28;20224;-73
2021/06/23 04:09:28;;;;;;;5.87;5.23;;;;;;;13.19;100.00;101296.94;5009300;28;20211;-74
2021/06/23 04:12:04;;;;;;;8.63;5.70;;;;;;;13.51;100.00;101312.69;5011771;28;20235;-75
2021/06/23 04:14:38;;;;;;;7.40;5.60;;;;;;;13.72;100.00;101314.31;5024614;28;20223;-74
2021/06/23 04:17:06;;;;;;;5.93;5.00;;;;;;;13.67;100.00;101311.59;5013071;28;20280;-76
2021/06/23 04:19:31;;;;;;;6.00;4.90;;;;;;;13.79;100.00;101320.31;5013166;28;20184;-74
2021/06/23 04:22:00;;;;;;;8.60;4.87;;;;;;;13.71;100.00;101323.59;5011869;28;20224;-74
2021/06/23 04:24:27;;;;;;;4.43;4.03;;;;;;;13.70;100.00;101327.44;5013143;28;20200;-74
2021/06/23 04:26:58;;;;;;;6.63;4.43;;;;;;;13.64;100.00;101327.69;5012886;28;20232;-73
2021/06/23 04:29:26;;;;;;;6.93;4.43;;;;;;;13.70;100.00;101349.28;5013211;28;20215;-76
2021/06/23 04:31:57;;;;;;;6.57;4.40;;;;;;;13.61;100.00;101345.47;5027983;28;20224;-73
2021/06/23 04:34:26;;;;;;;5.70;4.47;;;;;;;13.66;100.00;101353.66;5028693;28;20200;-73
2021/06/23 04:36:57;;;;;;;7.07;4.27;;;;;;;13.78;100.00;101343.25;4992900;28;20212;-72
2021/06/23 04:39:25;;;;;;;7.07;4.30;;;;;;;14.14;100.00;101344.81;5025992;28;20215;-74
2021/06/23 04:42:06;;;;;;;5.63;4.13;;;;;;;14.17;100.00;101341.53;5016620;28;20216;-74
2021/06/23 04:44:33;;;;;;;4.90;4.40;;;;;;;14.43;100.00;101344.72;5026261;28;20236;-74
2021/06/23 04:46:59;;;;;;;6.60;4.60;;;;;;;14.38;100.00;101331.06;5029852;28;20597;-74
2021/06/23 04:49:29;;;;;;;5.27;4.20;;;;;;;14.47;100.00;101321.16;5046601;28;20689;-75
2021/06/23 04:52:18;;;;;;;5.80;4.30;;;;;;;14.67;100.00;101334.75;5008990;28;20725;-76
2021/06/23 04:54:46;;;;;;;6.60;4.10;;;;;;;14.44;100.00;101335.38;4990505;28;20270;-74
2021/06/23 04:57:13;;;;;;;7.07;4.83;;;;;;;14.82;100.00;101329.19;5002715;28;20216;-75
2021/06/23 04:59:38;;;;;;;8.30;6.17;;;;;;;15.09;100.00;101328.44;5006058;28;20677;-74
2021/06/23 05:02:06;;;;;;;8.87;4.70;;;;;;;15.24;100.00;101336.53;4976778;28;20229;-74
2021/06/23 05:04:36;;;;;;;4.90;3.70;;;;;;;15.04;100.00;101336.66;5003834;28;20583;-75
2021/06/23 05:07:03;;;;;;;6.47;3.30;;;;;;;15.47;100.00;101338.53;5011689;28;20266;-74
2021/06/23 05:09:31;;;;;;;6.63;3.20;;;;;;;15.53;100.00;101346.44;5001643;28;20256;-75
2021/06/23 05:11:59;;;;;;;5.47;3.20;;;;;;;15.87;100.00;101334.28;5018447;28;20881;-78
2021/06/23 05:14:25;;;;;;;8.10;3.90;;;;;;;15.87;100.00;101337.03;5017223;28;20208;-77
2021/06/23 05:16:56;;;;;;;6.10;3.27;;;;;;;15.83;100.00;101344.19;5020969;28;20227;-76
2021/06/23 05:19:24;;;;;;;6.00;3.30;;;;;;;16.11;100.00;101337.84;5025615;28;20734;-77
2021/06/23 05:21:56;;;;;;;6.88;2.90;;;;;;;16.02;100.00;101330.56;5021789;28;20720;-76
2021/06/23 05:24:22;;;;;;;8.20;2.80;;;;;;;15.90;100.00;101330.97;4992215;28;20201;-79
2021/06/23 05:26:47;;;;;;;6.38;3.00;;;;;;;15.95;100.00;101333.66;5011260;28;20247;-76
2021/06/23 05:29:13;;;;;;;6.63;3.50;;;;;;;15.97;100.00;101331.44;5010355;28;20218;-74
2021/06/23 05:31:42;;;;;;;6.10;2.40;;;;;;;16.06;100.00;101332.44;5031161;28;20212;-76
2021/06/23 05:34:08;;;;;;;6.35;2.97;;;;;;;16.05;100.00;101327.25;5023249;28;20404;-75
2021/06/23 05:36:34;;;;;;;6.70;2.10;;;;;;;16.23;100.00;101319.91;5018018;28;20223;-76
2021/06/23 05:38:59;;;;;;;7.10;2.00;;;;;;;16.53;100.00;101322.25;5011699;28;20172;-75
2021/06/23 05:41:30;;;;;;;8.30;2.35;;;;;;;16.54;100.00;101320.34;5008227;28;20208;-76
2021/06/23 05:44:00;;;;;;;8.05;2.20;;;;;;;16.65;100.00;101315.25;4995823;28;20242;-76
2021/06/23 05:46:26;;;;;;;6.85;2.20;;;;;;;16.77;100.00;101332.06;5035466;28;20269;-77
2021/06/23 05:48:52;;;;;;;6.88;1.98;;;;;;;16.54;100.00;101339.53;4992231;28;20245;-75
2021/06/23 05:51:17;;;;;;;6.00;2.10;;;;;;;16.28;100.00;101340.97;5014188;28;20731;-75
2021/06/23 05:53:43;;;;;;;5.78;1.88;;;;;;;16.66;100.00;101341.53;5013840;28;20208;-76
2021/06/23 05:56:13;;;;;;;6.80;2.10;;;;;;;16.58;100.00;101344.97;5026776;28;20220;-75
2021/06/23 05:58:39;;;;;;;5.72;1.73;;;;;;;16.80;100.00;101330.69;4995241;28;20185;-76
2021/06/23 06:01:06;;;;;;;6.65;2.10;;;;;;;16.88;100.00;101335.50;4980385;28;20227;-75
2021/06/23 06:03:34;;;;;;;3.30;1.45;;;;;;;16.94;100.00;101337.88;4998387;28;20205;-76
2021/06/23 06:06:00;;;;;;;6.85;1.80;;;;;;;17.44;100.00;101335.97;4963406;28;20212;-76
2021/06/23 06:08:27;;;;;;;3.58;1.73;;;;;;;17.71;98.35;101341.56;5031739;28;20774;-75
2021/06/23 06:10:53;;;;;;;3.38;1.50;;;;;;;17.75;97.76;101340.63;5011135;28;20223;-75
2021/06/23 06:13:19;;;;;;;2.15;1.27;;;;;;;17.97;95.57;101348.22;4982324;28;20659;-74
2021/06/23 06:15:45;;;;;;;4.70;1.60;;;;;;;17.67;95.99;101350.69;5030217;28;20223;-75
2021/06/23 06:18:12;;;;;;;3.45;1.50;;;;;;;17.97;94.93;101348.22;5014626;28;20177;-77
2021/06/23 06:20:38;;;;;;;5.03;1.73;;;;;;;17.85;95.76;101350.63;4994041;28;20240;-76
2021/06/23 06:23:04;;;;;;;4.15;1.30;;;;;;;17.89;94.88;101346.16;4994576;28;20680;-75
2021/06/23 06:25:29;;;;;;;4.65;1.27;;;;;;;18.11;93.33;101343.56;5014634;28;20307;-74
2021/06/23 06:27:55;;;;;;;3.42;1.30;;;;;;;18.22;92.33;101351.31;5001351;28;20266;-75
2021/06/23 06:30:24;;;;;;;3.40;1.35;;;;;;;17.94;95.26;101337.81;4977798;28;20199;-74
2021/06/23 06:32:50;;;;;;;4.70;1.27;;;;;;;18.31;94.53;101328.25;5007416;28;20205;-74
2021/06/23 06:35:15;;;;;;;2.35;1.08;;;;;;;18.34;93.48;101335.91;4997864;28;20243;-74
2021/06/23 06:37:46;;;;;;;5.88;1.45;;;;;;;18.30;92.19;101334.09;4995237;28;20177;-75
2021/06/23 06:40:14;;;;;;;3.65;1.20;;;;;;;18.10;93.01;101350.19;4978516;28;20662;-76
2021/06/23 06:42:40;;;;;;;3.15;1.40;;;;;;;17.87;94.19;101348.38;5009130;28;20215;-75
2021/06/23 06:45:08;;;;;;;4.13;1.45;;;;;;;17.86;94.22;101346.78;4985147;28;20209;-75
2021/06/23 06:47:36;;;;;;;3.40;1.30;;;;;;;18.20;92.61;101350.78;5004974;28;20240;-76
2021/06/23 06:50:02;;;;;;;4.50;1.35;;;;;;;18.12;93.33;101355.06;5030432;28;20560;-76
2021/06/23 06:52:32;;;;;;;4.85;1.60;;;;;;;18.01;92.40;101351.97;5010690;28;20298;-75
2021/06/23 06:54:58;;;;;;;4.57;1.70;;;;;;;17.56;95.77;101354.72;5027430;28;20638;-77
2021/06/23 06:57:24;;;;;;;7.32;1.80;;;;;;;18.02;95.21;101350.84;5012663;28;20205;-74
2021/06/23 06:59:49;;;;;;;3.60;1.30;;;;;;;17.91;94.21;101350.25;5010703;28;20177;-79
2021/06/23 07:02:17;;;;;;;4.72;1.77;;;;;;;17.66;95.60;101344.38;4977579;28;20227;-76
2021/06/23 07:04:42;;;;;;;3.20;1.27;;;;;;;18.20;93.37;101339.78;5010916;28;20235;-76
2021/06/23 07:07:10;;;;;;;4.82;1.77;;;;;;;18.01;94.18;101351.97;5012091;28;20224;-75
2021/06/23 07:09:36;;;;;;;3.65;1.83;;;;;;;18.03;93.49;101366.25;5030784;28;20212;-77
2021/06/23 07:12:01;;;;;;;4.50;1.45;;;;;;;18.27;91.55;101357.50;5023968;28;20223;-75
2021/06/23 07:14:29;;;;;;;4.53;1.60;;;;;;;17.72;94.13;101362.41;5019156;28;20279;-75
2021/06/23 07:16:57;;;;;;;4.47;1.65;;;;;;;17.67;93.90;101365.25;4994412;28;20302;-75
2021/06/23 07:19:25;;;;;;;4.18;1.30;;;;;;;18.10;92.09;101363.94;4996556;28;20210;-75
2021/06/23 07:21:50;;;;;;;3.90;1.45;;;;;;;17.91;92.51;101371.41;5045322;28;20224;-75
2021/06/23 07:24:19;;;;;;;2.78;1.30;;;;;;;17.82;93.62;101367.75;5026890;28;20217;-76
2021/06/23 07:26:47;;;;;;;7.13;1.35;;;;;;;18.06;93.61;101369.19;5011481;28;20233;-75
2021/06/23 07:29:13;;;;;;;5.38;1.40;;;;;;;17.76;92.37;101369.78;5026466;28;20195;-76
2021/06/23 07:32:05;;;;;;;3.17;1.38;;;;;;;18.04;93.54;101378.84;5028422;28;20236;-76
2021/06/23 07:36:56;;;;;;;2.72;1.30;;;;;;;17.94;93.31;101381.81;5031124;28;20216;-76
2021/06/23 07:39:22;;;;;;;3.38;1.20;;;;;;;17.78;93.68;101394.19;5030111;28;20323;-76
2021/06/23 07:41:49;;;;;;;4.63;1.27;;;;;;;18.07;92.45;101397.50;4987003;28;20312;-75
2021/06/23 07:44:19;;;;;;;3.03;1.33;;;;;;;18.07;93.08;101400.25;5024876;28;20207;-75
2021/06/23 07:46:53;;;;;;;3.15;1.42;;;;;;;18.16;92.23;101397.34;5014047;28;20220;-74
2021/06/23 07:49:23;;;;;;;2.75;1.42;;;;;;;18.22;93.39;101401.66;5018977;28;20212;-77
2021/06/23 08:10:31;;;;;;;5.65;1.50;;;;;;;18.79;84.91;101406.50;5023655;28;20220;-79
2021/06/23 08:13:02;;;;;;;3.42;1.10;;;;;;;18.82;81.75;101405.91;5021604;28;20172;-76
2021/06/23 08:15:28;;;;;;;2.97;1.10;;;;;;;19.11;81.17;101402.50;5035077;28;20721;-75
2021/06/23 08:17:55;;;;;;;3.35;1.30;;;;;;;18.88;80.92;101404.66;5019497;28;20199;-78
2021/06/23 08:20:21;;;;;;;4.75;1.40;;;;;;;19.61;78.12;101387.53;4992616;28;20287;-77
2021/06/23 08:22:49;;;;;;;5.05;1.25;;;;;;;19.82;76.76;101384.78;4994009;28;20187;-75
2021/06/23 08:25:14;;;;;;;3.58;1.30;;;;;;;19.08;80.18;101389.38;5026194;28;20229;-78
2021/06/23 08:27:40;;;;;;;2.92;1.17;;;;;;;18.48;84.55;101394.53;4993432;28;20219;-76
2021/06/23 08:30:06;;;;;;;3.58;1.30;;;;;;;18.72;84.30;101382.16;4990306;28;20342;-73
2021/06/23 08:32:32;;;;;;;3.35;1.30;;;;;;;18.57;86.50;101387.16;5012986;28;20187;-76
2021/06/23 08:34:58;;;;;;;3.75;1.27;;;;;;;18.88;83.57;101399.16;5009368;28;20193;-76
2021/06/23 08:37:24;;;;;;;2.95;1.20;;;;;;;19.08;79.39;101378.34;5025520;28;20736;-76
2021/06/23 08:39:54;;;;;;;4.28;1.50;;;;;;;19.50;79.57;101380.63;5009596;28;20173;-75
2021/06/23 08:42:24;;;;;;;3.47;1.30;;;;;;;19.78;76.46;101378.25;4997467;28;20728;-75
2021/06/23 08:44:50;;;;;;;4.38;1.90;;;;;;;20.07;73.29;101367.56;5012298;28;20212;-76
2021/06/23 08:47:18;;;;;;;3.80;1.45;;;;;;;20.07;73.18;101373.06;5028290;28;20228;-75
2021/06/23 08:49:46;;;;;;;2.53;1.25;;;;;;;20.12;71.62;101364.66;5003636;28;20192;-77
2021/06/23 08:52:12;;;;;;;4.40;1.23;;;;;;;20.17;71.84;101362.56;4992313;28;20217;-76
2021/06/23 08:54:39;;;;;;;3.60;1.30;;;;;;;19.91;72.53;101376.59;5017058;28;20208;-76
2021/06/23 08:57:05;;;;;;;2.50;1.38;;;;;;;20.01;70.36;101381.81;5025244;28;20221;-76
2021/06/23 08:59:31;;;;;;;5.03;1.45;;;;;;;19.97;70.79;101378.88;4989964;28;20229;-75
2021/06/23 09:02:02;;;;;;;5.40;1.42;;;;;;;19.73;68.32;101392.16;4971810;28;20254;-75
2021/06/23 09:04:28;;;;;;;3.80;1.50;;;;;;;19.93;67.38;101377.88;5009257;28;20201;-77
2021/06/23 09:06:55;;;;;;;3.90;1.55;;;;;;;19.85;71.13;101388.84;4992751;28;20323;-74
2021/06/23 09:09:26;;;;;;;4.22;1.52;;;;;;;19.57;69.50;101384.56;4977260;28;20177;-75
2021/06/23 09:11:58;;;;;;;3.80;1.55;;;;;;;19.04;74.32;101380.06;4992995;28;20903;-76
2021/06/23 09:14:29;;;;;;;3.40;1.30;;;;;;;19.07;70.58;101390.50;5033058;28;20208;-75
2021/06/23 09:17:06;;;;;;;4.45;1.75;;;;;;;20.17;68.64;101375.56;5028113;28;20216;-75
2021/06/23 09:19:43;;;;;;;4.93;1.40;;;;;;;20.32;67.91;101369.63;5008693;28;20177;-75
2021/06/23 09:22:35;;;;;;;3.97;1.52;;;;;;;20.45;67.60;101392.41;4991616;28;20364;-77
2021/06/23 09:25:26;;;;;;;4.28;1.60;;;;;;;19.82;71.57;101401.34;5015155;28;20713;-77
2021/06/23 09:27:54;;;;;;;5.22;1.67;;;;;;;19.40;74.17;101392.72;5034977;28;20212;-78
2021/06/23 09:30:28;;;;;;;3.08;1.70;;;;;;;19.65;75.62;101388.53;5013906;28;20592;-77
2021/06/23 09:33:15;;;;;;;3.63;1.50;;;;;;;20.00;69.31;101381.00;4982404;28;20184;-78
2021/06/23 09:36:04;;;;;;;4.38;1.48;;;;;;;20.44;66.37;101382.50;5011713;28;20220;-77
2021/06/23 09:38:44;;;;;;;4.10;1.50;;;;;;;20.98;64.76;101376.50;5033972;28;20701;-77
2021/06/23 09:41:36;;;;;;;2.70;1.48;;;;;;;21.64;59.94;101380.41;5017757;28;20230;-78
2021/06/23 09:44:09;;;;;;;5.75;1.80;;;;;;;20.84;61.44;101375.81;5040040;28;20212;-77
2021/06/23 09:46:39;;;;;;;4.05;1.70;;;;;;;21.03;62.53;101376.34;5012533;28;20228;-76
2021/06/23 09:49:16;;;;;;;4.60;2.25;;;;;;;20.65;62.80;101383.56;4996785;28;20186;-74
2021/06/23 09:51:43;;;;;;;3.97;1.70;;;;;;;20.88;64.59;101379.56;5012265;28;20222;-75
2021/06/23 09:54:09;;;;;;;5.90;2.15;;;;;;;20.68;61.15;101371.09;5032022;28;20224;-75
2021/06/23 09:56:38;;;;;;;3.30;1.40;;;;;;;20.77;61.54;101380.19;5011760;28;20232;-75
2021/06/23 09:59:04;;;;;;;3.83;1.85;;;;;;;21.06;58.19;101383.97;5005395;28;20184;-75
2021/06/23 10:01:36;;;;;;;4.50;1.45;;;;;;;20.82;56.70;101382.78;5014020;28;20216;-77
2021/06/23 10:04:07;;;;;;;4.78;2.20;;;;;;;21.00;59.62;101375.03;5031936;28;20693;-75
2021/06/23 10:06:34;;;;;;;2.45;1.13;;;;;;;21.47;59.59;101374.91;5001553;28;20225;-76
2021/06/23 10:09:22;;;;;;;2.97;1.50;;;;;;;21.80;56.32;101371.28;4995920;28;20207;-75
2021/06/23 10:11:56;;;;;;;3.80;1.35;;;;;;;21.41;53.99;101365.16;4992904;28;20322;-77
2021/06/23 10:14:23;;;;;;;1.95;1.20;;;;;;;21.81;54.14;101364.63;4979309;28;20673;-76
2021/06/23 10:16:49;;;;;;;2.45;1.20;;;;;;;22.35;55.09;101358.28;4999998;28;20259;-78
2021/06/23 10:19:15;;;;;;;4.03;1.40;;;;;;;21.99;53.28;101370.91;5012097;28;20193;-78
2021/06/23 10:21:40;;;;;;;2.97;1.58;;;;;;;22.44;52.63;101363.44;5029888;28;20243;-77
2021/06/23 10:24:09;;;;;;;4.47;1.60;;;;;;;23.25;53.72;101362.75;5015139;28;20207;-76
2021/06/23 10:26:36;;;;;;;3.25;1.42;;;;;;;22.25;52.33;101367.78;5003300;28;20304;-75
2021/06/23 10:29:02;;;;;;;3.50;1.38;;;;;;;21.54;57.57;101369.72;4980823;28;20673;-74
2021/06/23 10:31:30;;;;;;;3.15;1.40;;;;;;;21.99;58.10;101362.59;5020944;28;20224;-74
2021/06/23 10:33:56;;;;;;;2.08;1.42;;;;;;;21.81;59.16;101372.09;4998185;28;20254;-76
2021/06/23 10:36:24;;;;;;;3.47;1.70;;;;;;;21.78;59.26;101375.53;5022553;28;20619;-76
2021/06/23 10:38:53;;;;;;;3.92;1.67;;;;;;;21.65;60.54;101379.28;4995426;28;20185;-76
2021/06/23 10:41:18;;;;;;;3.70;1.70;;;;;;;21.18;59.95;101378.63;5017008;28;20215;-75
2021/06/23 10:44:09;;;;;;;3.30;1.70;;;;;;;20.86;62.08;101377.13;4997194;28;20205;-76
2021/06/23 10:46:40;;;;;;;2.72;1.67;;;;;;;20.68;62.82;101382.94;5036175;28;20231;-75
2021/06/23 10:49:10;;;;;;;4.43;1.77;;;;;;;20.88;64.26;101382.34;5011278;28;20196;-76
2021/06/23 10:51:36;;;;;;;3.35;1.85;;;;;;;21.04;64.49;101387.09;5018357;28;20273;-75
2021/06/23 10:54:27;;;;;;;4.68;1.73;;;;;;;21.21;62.62;101380.72;5016075;28;20583;-79
2021/06/23 10:56:55;;;;;;;5.32;2.00;;;;;;;20.92;66.03;101383.31;5004084;28;20280;-76
2021/06/23 10:59:37;;;;;;;4.10;1.95;;;;;;;20.63;66.76;101385.03;4979705;28;20198;-77
2021/06/23 11:02:09;;;;;;;5.43;2.00;;;;;;;21.12;67.04;101391.00;4987764;28;20223;-74
2021/06/23 11:05:04;;;;;;;5.03;1.90;;;;;;;20.82;62.12;101389.13;5017919;28;20291;-77
2021/06/23 11:07:33;;;;;;;4.15;2.00;;;;;;;21.86;59.22;101383.00;5018227;28;20683;-76
2021/06/23 11:10:11;;;;;;;4.68;1.73;;;;;;;22.71;56.85;101387.06;5011822;28;20173;-76
2021/06/23 11:12:53;;;;;;;5.53;1.60;;;;;;;23.25;54.45;101380.22;5027034;28;20231;-76
2021/06/23 11:15:35;;;;;;;3.90;1.50;;;;;;;22.97;51.74;101377.50;4998567;28;20201;-77
2021/06/23 11:18:20;;;;;;;4.60;1.63;;;;;;;23.92;53.18;101386.31;5011111;28;20204;-77
2021/06/23 11:21:07;;;;;;;4.25;1.30;;;;;;;24.14;52.50;101395.88;5030006;28;20700;-76
2021/06/23 11:24:00;;;;;;;6.10;1.90;;;;;;;24.04;50.77;101389.94;5012168;28;20208;-77
2021/06/23 11:26:25;;;;;;;4.20;1.60;;;;;;;24.29;48.79;101400.00;5013560;28;20294;-76
2021/06/23 11:29:09;;;;;;;4.47;1.65;;;;;;;23.06;49.95;101387.38;5031208;28;20267;-76
2021/06/23 11:31:51;;;;;;;3.67;1.60;;;;;;;22.89;52.51;101387.50;5027604;28;20260;-77
2021/06/23 11:34:37;;;;;;;3.22;1.55;;;;;;;23.22;50.87;101396.72;4996876;28;20200;-77
2021/06/23 11:37:03;;;;;;;4.82;1.90;;;;;;;23.67;50.95;101388.19;5015996;28;20212;-75
2021/06/23 11:39:32;;;;;;;4.60;1.40;;;;;;;23.92;49.41;101387.13;4998116;28;20226;-78
2021/06/23 11:41:59;;;;;;;3.20;1.60;;;;;;;24.02;47.46;101383.91;5019759;28;20221;-76
2021/06/23 11:44:29;;;;;;;3.70;1.40;;;;;;;23.72;48.39;101385.22;5014736;28;20212;-75
2021/06/23 11:46:58;;;;;;;4.82;1.58;;;;;;;24.08;50.58;101382.53;5027894;28;20672;-76
2021/06/23 11:49:26;;;;;;;4.13;1.33;;;;;;;23.90;48.74;101378.34;5046519;28;20210;-75
2021/06/23 11:51:54;;;;;;;3.22;1.83;;;;;;;22.71;50.84;101384.31;5026341;28;20227;-76
2021/06/23 11:54:22;;;;;;;4.05;1.60;;;;;;;22.82;53.07;101381.63;4978395;28;20189;-77
2021/06/23 11:56:47;;;;;;;4.75;1.65;;;;;;;22.93;53.09;101388.44;4978157;28;20285;-75
2021/06/23 11:59:13;;;;;;;2.78;1.30;;;;;;;23.18;50.69;101384.66;5014178;28;20189;-77